Time;durP1;ratioP1;P1;durP2;ratioP2;P2;SDS_P1;SDS_P2;PMS_P1;PMS_P2;Temp;Humidity;BMP_temperature;BMP_pressure;BME280_temperature;BME280_humidity;BME280_pressure;Samples;Min_cycle;Max_cycle;Signal;HPM_P1;HPM_P2
2022/07/18 00:09:54;;;;;;;7.53;2.50;;;;;;;-147.20;100.00;63046.97;31550738;28;20381;-62
2022/07/18 00:24:54;;;;;;;6.70;2.80;;;;;;;-147.20;100.00;63046.97;31549716;28;20103;-66
2022/07/18 00:39:55;;;;;;;9.55;2.92;;;;;;;-147.20;100.00;63046.97;31554890;28;20045;-62
2022/07/18 00:54:55;;;;;;;8.45;2.78;;;;;;;-147.20;100.00;63046.97;31568337;28;20468;-61
2022/07/18 01:09:56;;;;;;;6.70;2.78;;;;;;;-147.20;100.00;63046.97;31567176;28;20033;-62
2022/07/18 01:24:56;;;;;;;8.30;2.88;;;;;;;-147.20;100.00;63046.97;31565185;28;20029;-62
2022/07/18 01:39:57;;;;;;;6.72;2.60;;;;;;;-147.20;100.00;63046.97;31563263;28;20051;-61
2022/07/18 01:54:58;;;;;;;8.80;3.35;;;;;;;-147.20;100.00;63046.97;31562033;28;20055;-62
2022/07/18 02:09:59;;;;;;;4.85;2.70;;;;;;;-147.20;100.00;63046.97;31561249;28;20061;-62
2022/07/18 02:25:00;;;;;;;6.72;2.10;;;;;;;-147.20;100.00;63046.97;31559188;28;20463;-62
2022/07/18 02:40:00;;;;;;;12.40;2.50;;;;;;;-147.20;100.00;63046.97;31556552;28;20056;-61
2022/07/18 02:55:01;;;;;;;6.05;2.78;;;;;;;-147.20;100.00;63046.97;31555520;28;20060;-62
2022/07/18 03:10:02;;;;;;;6.97;2.67;;;;;;;-147.20;100.00;63046.97;31553387;28;20036;-62
2022/07/18 03:25:03;;;;;;;4.50;2.50;;;;;;;-147.20;100.00;63046.97;31553476;28;20025;-62
2022/07/18 03:40:04;;;;;;;6.93;2.55;;;;;;;-147.20;100.00;63046.97;31550250;28;20049;-62
2022/07/18 03:55:05;;;;;;;6.10;2.42;;;;;;;-147.20;100.00;63046.97;31549178;28;20033;-62
2022/07/18 04:10:07;;;;;;;7.53;2.57;;;;;;;-147.20;100.00;63046.97;31547200;28;20039;-62
2022/07/18 04:25:07;;;;;;;4.95;2.70;;;;;;;-147.20;100.00;63046.97;31565777;28;20272;-63
2022/07/18 04:40:09;;;;;;;6.70;2.90;;;;;;;-147.20;100.00;63046.97;31565819;28;20049;-62
2022/07/18 04:55:11;;;;;;;10.05;2.80;;;;;;;-147.20;100.00;63046.97;31565373;28;20029;-61
2022/07/18 05:10:13;;;;;;;7.72;3.13;;;;;;;-147.20;100.00;63046.97;31562646;28;20029;-62
2022/07/18 05:25:14;;;;;;;7.93;2.43;;;;;;;-147.20;100.00;63046.97;31561267;28;20040;-63
2022/07/18 05:40:15;;;;;;;6.57;2.45;;;;;;;-147.20;100.00;63046.97;31559799;28;20067;-62
2022/07/18 05:55:15;;;;;;;6.35;2.65;;;;;;;-147.20;100.00;63046.97;31559001;28;20123;-62
2022/07/18 06:10:16;;;;;;;6.85;2.42;;;;;;;-147.20;100.00;63046.97;31557223;28;20060;-62
2022/07/18 06:25:16;;;;;;;6.43;2.20;;;;;;;-147.20;100.00;63046.97;31554069;28;20087;-61
2022/07/18 06:40:16;;;;;;;5.53;1.88;;;;;;;-147.20;100.00;63046.97;31553747;28;20056;-62
2022/07/18 06:55:17;;;;;;;8.55;1.70;;;;;;;-147.20;100.00;63046.97;31552087;28;20033;-62
2022/07/18 07:10:18;;;;;;;5.53;2.63;;;;;;;-147.20;100.00;63046.97;31550257;28;20037;-62
2022/07/18 07:25:21;;;;;;;2.80;1.27;;;;;;;-147.20;100.00;63046.97;31549759;28;20039;-61
2022/07/18 07:40:27;;;;;;;3.88;1.25;;;;;;;-147.20;100.00;63046.97;31549510;28;20110;-62
2022/07/18 07:55:28;;;;;;;4.07;1.10;;;;;;;-147.20;100.00;63046.97;31564962;28;20033;-62
2022/07/18 08:10:29;;;;;;;4.85;1.48;;;;;;;-147.20;100.00;63046.97;31569579;28;20059;-61
2022/07/18 08:25:31;;;;;;;2.42;1.10;;;;;;;-147.20;100.00;63046.97;31566288;28;20029;-61
2022/07/18 08:40:32;;;;;;;5.80;1.10;;;;;;;-147.20;100.00;63046.97;31565675;28;20080;-61
2022/07/18 08:55:32;;;;;;;4.90;1.20;;;;;;;-147.20;100.00;63046.97;31565543;28;20044;-65
2022/07/18 09:10:41;;;;;;;2.40;1.23;;;;;;;-147.20;100.00;63046.97;31564544;28;20040;-68
2022/07/18 09:25:43;;;;;;;;;;;;;;;-147.20;100.00;63046.97;31563604;28;20036;-68
2022/07/18 09:40:44;;;;;;;4.65;1.30;;;;;;;-147.20;100.00;63046.97;31560882;28;19925;-63
2022/07/18 09:55:48;;;;;;;5.40;1.17;;;;;;;-147.20;100.00;63046.97;31558497;28;20037;-63
2022/07/18 10:10:50;;;;;;;3.60;1.27;;;;;;;-147.20;100.00;63046.97;31554410;28;20493;-66
2022/07/18 10:26:18;;;;;;;5.82;1.42;;;;;;;-147.20;100.00;63046.97;31552732;28;20404;-69
2022/07/18 10:41:19;;;;;;;3.45;1.10;;;;;;;-147.20;100.00;63046.97;31551920;28;20057;-68
2022/07/18 10:56:28;;;;;;;2.92;1.17;;;;;;;-147.20;100.00;63046.97;31552788;28;20044;-69
2022/07/18 11:11:28;;;;;;;3.47;1.10;;;;;;;-147.20;100.00;63046.97;31463805;28;20128;-71
2022/07/18 11:26:30;;;;;;;3.47;1.17;;;;;;;-147.20;100.00;63046.97;31430760;28;20455;-62
2022/07/18 11:41:30;;;;;;;3.63;1.08;;;;;;;-147.20;100.00;63046.97;31454203;28;20058;-63
2022/07/18 11:56:31;;;;;;;7.07;1.00;;;;;;;-147.20;100.00;63046.97;31525703;28;20061;-63
2022/07/18 12:11:34;;;;;;;8.38;1.75;;;;;;;-147.20;100.00;63046.97;31548044;28;20056;-62
2022/07/18 12:26:34;;;;;;;5.45;1.30;;;;;;;-147.20;100.00;63046.97;31539863;28;20033;-66
2022/07/18 12:41:34;;;;;;;5.20;1.00;;;;;;;-147.20;100.00;63046.97;31549017;28;20099;-63
2022/07/18 12:56:35;;;;;;;7.32;1.30;;;;;;;-147.20;100.00;63046.97;31449354;28;20088;-65
2022/07/18 13:11:35;;;;;;;5.60;1.10;;;;;;;-147.20;100.00;63046.97;31427500;28;20041;-65
2022/07/18 13:26:36;;;;;;;3.60;1.00;;;;;;;-147.20;100.00;63046.97;31424512;28;20172;-62
2022/07/18 13:41:36;;;;;;;3.55;1.35;;;;;;;-147.20;100.00;63046.97;31434483;28;20041;-62
2022/07/18 13:56:37;;;;;;;3.20;1.00;;;;;;;-147.20;100.00;63046.97;31504638;28;20037;-63
2022/07/18 14:11:37;;;;;;;2.90;0.95;;;;;;;-147.20;100.00;63046.97;31555745;28;20036;-62
2022/07/18 14:26:37;;;;;;;5.10;1.20;;;;;;;-147.20;100.00;63046.97;31530574;28;20034;-64
2022/07/18 14:41:38;;;;;;;5.63;1.30;;;;;;;-147.20;100.00;63046.97;31423271;28;20394;-63
2022/07/18 14:56:38;;;;;;;3.67;1.33;;;;;;;-147.20;100.00;63046.97;31498317;28;20033;-63
2022/07/18 15:11:39;;;;;;;6.72;3.47;;;;;;;-147.20;100.00;63046.97;31548276;28;20041;-62
2022/07/18 15:26:39;;;;;;;3.80;1.30;;;;;;;-147.20;100.00;63046.97;31546159;28;20124;-62
2022/07/18 15:41:40;;;;;;;4.03;1.40;;;;;;;-147.20;100.00;63046.97;31546051;28;20057;-62
2022/07/18 15:56:40;;;;;;;3.13;1.20;;;;;;;-147.20;100.00;63046.97;31545207;28;20037;-63
2022/07/18 16:11:41;;;;;;;3.92;1.27;;;;;;;-147.20;100.00;63046.97;31553069;28;20044;-63
2022/07/18 16:26:41;;;;;;;2.28;1.17;;;;;;;-147.20;100.00;63046.97;31564043;28;20112;-63
2022/07/18 16:41:41;;;;;;;4.65;1.63;;;;;;;-147.20;100.00;63046.97;31528198;28;20456;-62
2022/07/18 16:56:42;;;;;;;6.60;1.20;;;;;;;-147.20;100.00;63046.97;31496260;28;20041;-62
2022/07/18 17:11:42;;;;;;;3.50;1.35;;;;;;;-147.20;100.00;63046.97;31514825;28;20040;-62
2022/07/18 17:26:43;;;;;;;4.38;1.73;;;;;;;-147.20;100.00;63046.97;31557875;28;20035;-62
2022/07/18 17:41:43;;;;;;;2.97;1.60;;;;;;;-147.20;100.00;63046.97;31556157;28;20091;-62
2022/07/18 17:56:44;;;;;;;4.55;2.10;;;;;;;-147.20;100.00;63046.97;31558309;28;20036;-63
2022/07/18 18:11:44;;;;;;;6.65;1.75;;;;;;;-147.20;100.00;63046.97;31554882;28;20036;-64
2022/07/18 18:26:45;;;;;;;4.47;1.80;;;;;;;-147.20;100.00;63046.97;31556943;28;20079;-63
2022/07/18 18:41:45;;;;;;;5.82;1.75;;;;;;;-147.20;100.00;63046.97;31554111;28;20049;-67
2022/07/18 18:56:46;;;;;;;7.25;3.05;;;;;;;-147.20;100.00;63046.97;31540732;28;20029;-63
2022/07/18 19:11:46;;;;;;;7.55;2.80;;;;;;;-147.20;100.00;63046.97;31532882;28;20043;-62
2022/07/18 19:26:47;;;;;;;8.73;3.70;;;;;;;-147.20;100.00;63046.97;31539016;28;20112;-62
2022/07/18 19:41:47;;;;;;;9.82;2.40;;;;;;;-147.20;100.00;63046.97;31544094;28;20076;-61
2022/07/18 19:56:47;;;;;;;;;;;;;;;-147.20;100.00;63046.97;31580878;28;20469;-60
2022/07/18 20:11:48;;;;;;;10.97;2.80;;;;;;;-147.20;100.00;63046.97;31579727;28;19917;-65
2022/07/18 20:26:49;;;;;;;11.35;3.78;;;;;;;-147.20;100.00;63046.97;31570599;28;20040;-61
2022/07/18 20:41:49;;;;;;;10.40;2.70;;;;;;;-147.20;100.00;63046.97;31579957;28;20124;-66
2022/07/18 20:56:52;;;;;;;5.10;2.53;;;;;;;-147.20;100.00;63046.97;31579010;28;20077;-67
2022/07/18 21:11:53;;;;;;;12.48;2.95;;;;;;;-147.20;100.00;63046.97;31564643;28;20041;-66
2022/07/18 21:26:53;;;;;;;9.63;3.50;;;;;;;-147.20;100.00;63046.97;31559329;28;20083;-67
2022/07/18 21:41:54;;;;;;;14.43;3.17;;;;;;;-147.20;100.00;63046.97;31543892;28;20060;-63
2022/07/18 21:56:54;;;;;;;10.33;3.43;;;;;;;-147.20;100.00;63046.97;31442125;28;20037;-62
2022/07/18 22:11:54;;;;;;;7.40;3.03;;;;;;;-147.20;100.00;63046.97;31438426;28;20124;-61
2022/07/18 22:26:55;;;;;;;10.10;3.53;;;;;;;-147.20;100.00;63046.97;31517970;28;20061;-62
2022/07/18 22:41:55;;;;;;;5.68;2.90;;;;;;;-147.20;100.00;63046.97;31516702;28;20406;-62
2022/07/18 22:56:56;;;;;;;8.85;3.13;;;;;;;-147.20;100.00;63046.97;31544947;28;20092;-62
2022/07/18 23:11:56;;;;;;;5.13;2.75;;;;;;;-147.20;100.00;63046.97;31555667;28;20052;-62
2022/07/18 23:26:57;;;;;;;8.75;3.45;;;;;;;-147.20;100.00;63046.97;31554338;28;20079;-64
2022/07/18 23:41:57;;;;;;;8.30;3.40;;;;;;;-147.20;100.00;63046.97;31553431;28;20053;-64
2022/07/18 23:56:57;;;;;;;6.80;2.88;;;;;;;-147.20;100.00;63046.97;31552578;28;20432;-62
